Latest Weather Observations for Larapuna (Eddystone Point)

IDT60801

Issued at 7:01 am EST Friday 28 August 2015 (issued every 30 minutes, with the page automatically refreshed every 10 minutes)

About weather observations | Map of weather stations | Latest weather observations for TAS | Other Formats
Station Details ID: 092045 Name: LARAPUNA (EDDYSTONE POINT) Lat: -40.99 Lon: 148.35 Height: 19.7 m
Data from the previous 72 hours. | See also: Recent months at Larapuna (Eddystone Point)
Date/Time
EST
Temp
°C
App
Temp
°C
Dew
Point
Rel
Hum
%
Delta-T
°C
Wind Press
QNH
hPa
Press
MSL
hPa
Rain
since 9 am
mm
Dir
 
Spd
km/h
Gust
km/h
Spd
kts
Gust
kts
28/07:00am 8.9 -3.5 4.9 76 1.8 S 59 72 32 39 1021.7 1021.8 0.2
28/06:30am 9.4 -2.2 5.6 77 1.7 S 56 67 30 36 1021.3 1021.4 0.2
28/06:00am 9.8 -1.3 6.3 79 1.6 S 54 65 29 35 1020.9 1021.0 0.2
28/05:57am 9.8 -1.7 6.2 78 1.7 S 56 65 30 35 1020.8 1020.9 0.2
28/05:30am 9.3 0.5 5.5 77 1.7 SSW 41 46 22 25 1020.6 1020.7 0.2
28/05:00am 9.6 1.1 5.2 74 2.0 SSW 39 43 21 23 1020.4 1020.5 0.2
28/04:30am 9.9 2.3 5.7 75 1.9 SSW 35 46 19 25 1020.2 1020.3 0.2
28/04:00am 9.8 3.1 5.6 75 1.9 SSW 30 35 16 19 1020.2 1020.3 0.2
28/03:30am 9.7 3.1 5.9 77 1.7 SSW 30 35 16 19 1019.9 1020.0 0.2
28/03:20am 9.9 2.3 5.9 76 1.8 SSW 35 43 19 23 1020.0 1020.1 0.2
28/03:00am 10.4 0.2 5.2 70 2.4 S 48 56 26 30 1019.8 1019.9 0.2
28/02:30am 10.1 0.7 5.3 72 2.2 S 44 52 24 28 1019.9 1020.0 0.2
28/02:00am 10.3 1.0 5.7 73 2.1 S 44 54 24 29 1020.2 1020.3 0.2
28/01:30am 10.2 0.5 6.0 75 1.9 S 46 56 25 30 1020.4 1020.5 0.2
28/01:00am 10.4 -0.7 6.4 76 1.9 S 54 63 29 34 1020.2 1020.3 0.2
28/12:30am 10.5 -0.2 6.6 77 1.8 S 52 63 28 34 1020.0 1020.1 0.2
28/12:00am 10.7 0.1 7.0 78 1.8 S 52 61 28 33 1019.9 1020.0 0.2
 
Date/Time
EST
Temp
°C
App
Temp
°C
Dew
Point
Rel
Hum
%
Delta-T
°C
Wind Press
QNH
hPa
Press
MSL
hPa
Rain
since 9 am
mm
Dir
 
Spd
km/h
Gust
km/h
Spd
kts
Gust
kts
27/11:30pm 10.8 0.1 7.9 82 1.4 S 54 65 29 35 1019.8 1019.9 0.2
27/11:00pm 11.0 0.7 8.2 83 1.4 S 52 61 28 33 1020.1 1020.2 0.2
27/10:30pm 11.0 1.5 8.2 83 1.4 S 48 57 26 31 1020.4 1020.5 0.2
27/10:00pm 10.7 1.7 8.8 88 0.9 S 46 56 25 30 1020.4 1020.5 0.2
27/09:30pm 11.0 2.1 9.3 89 0.9 S 46 56 25 30 1020.4 1020.5 0.2
27/09:00pm 10.8 2.9 9.4 91 0.7 S 41 50 22 27 1020.4 1020.5 0.2
27/08:30pm 10.9 3.1 9.8 93 0.6 S 41 50 22 27 1020.5 1020.6 0.2
27/08:00pm 11.0 2.8 9.8 92 0.6 S 43 50 23 27 1020.4 1020.5 0.2
27/07:30pm 11.1 3.4 10.0 93 0.6 S 41 46 22 25 1020.4 1020.5 0.2
27/07:00pm 11.4 5.8 10.1 92 0.7 S 30 37 16 20 1020.3 1020.4 0.2
27/06:30pm 11.3 5.1 10.2 93 0.6 S 33 39 18 21 1019.9 1020.0 0.2
27/06:00pm 11.1 4.5 10.0 93 0.6 S 35 41 19 22 1019.6 1019.7 0.2
27/05:30pm 11.6 6.0 10.2 91 0.7 S 30 35 16 19 1019.5 1019.6 0.2
27/05:00pm 11.7 7.5 9.9 89 0.9 SSE 22 26 12 14 1019.5 1019.6 0.2
27/04:30pm 12.1 7.3 10.2 88 1.0 SSE 26 30 14 16 1019.4 1019.5 0.2
27/04:00pm 12.4 7.2 10.3 87 1.1 SSE 28 33 15 18 1019.3 1019.4 0.2
27/03:30pm 12.5 6.4 10.6 88 1.0 S 33 39 18 21 1019.4 1019.5 0.2
27/03:00pm 12.2 6.1 10.3 88 1.0 S 33 39 18 21 1019.5 1019.6 0.2
27/02:30pm 12.5 6.5 10.9 90 0.8 SSE 33 37 18 20 1019.7 1019.8 0.2
27/02:00pm 13.1 7.2 10.6 85 1.3 S 32 37 17 20 1019.8 1019.9 0.0
27/01:30pm 13.6 8.5 10.6 82 1.6 S 28 35 15 19 1020.1 1020.2 0.0
27/01:00pm 13.4 7.3 10.6 83 1.5 S 33 39 18 21 1020.3 1020.4 0.0
27/12:30pm 13.0 6.9 10.4 84 1.3 S 33 39 18 21 1020.6 1020.7 0.0
27/12:00pm 12.6 6.0 10.1 85 1.3 S 35 39 19 21 1021.2 1021.3 0.0
27/11:30am 12.4 6.5 10.3 87 1.1 S 32 35 17 19 1021.7 1021.8 0.0
27/11:00am 12.3 6.4 10.5 89 0.9 S 32 37 17 20 1022.1 1022.2 0.0
27/10:30am 11.4 5.8 10.1 92 0.7 S 30 35 16 19 1022.3 1022.4 0.0
27/10:00am 11.0 4.9 9.9 93 0.6 S 32 35 17 19 1022.3 1022.4 0.0
27/09:30am 10.9 4.9 10.0 94 0.5 S 32 37 17 20 1022.6 1022.7 0.0
27/09:00am 10.7 5.0 9.8 94 0.5 S 30 35 16 19 1022.8 1022.9 4.6
27/08:30am 11.0 5.8 10.2 95 0.4 S 28 33 15 18 1022.9 1023.0 4.6
27/08:00am 10.4 5.1 9.8 96 0.3 S 28 33 15 18 1022.9 1023.0 4.6
27/07:30am 10.4 5.5 9.8 96 0.3 S 26 30 14 16 1022.8 1022.9 4.4
27/07:00am 10.2 5.2 9.6 96 0.3 S 26 30 14 16 1022.7 1022.8 4.4
27/06:30am 10.1 5.1 9.5 96 0.3 S 26 30 14 16 1022.6 1022.7 4.2
27/06:00am 10.0 4.6 9.4 96 0.3 S 28 32 15 17 1022.5 1022.6 4.0
27/05:30am 9.8 4.6 9.0 95 0.4 S 26 30 14 16 1022.5 1022.6 4.0
27/05:00am 10.0 5.7 9.2 95 0.4 S 22 26 12 14 1022.7 1022.8 4.0
27/04:30am 10.1 5.8 9.3 95 0.4 S 22 26 12 14 1022.9 1023.0 3.2
27/04:00am 10.0 5.3 9.2 95 0.4 SSW 24 26 13 14 1023.0 1023.1 3.2
27/03:30am 10.2 5.9 9.4 95 0.4 SSW 22 28 12 15 1023.4 1023.5 2.4
27/03:00am 10.0 5.7 9.2 95 0.4 SSW 22 26 12 14 1023.6 1023.7 1.8
27/02:30am 10.1 5.8 9.3 95 0.4 SSW 22 24 12 13 1024.1 1024.2 1.8
27/02:00am 10.4 6.5 9.6 95 0.4 S 20 24 11 13 1024.5 1024.6 1.8
27/01:30am 10.5 8.0 9.7 95 0.4 S 13 17 7 9 1025.0 1025.1 1.8
27/01:00am 10.3 7.0 9.5 95 0.4 SSW 17 20 9 11 1025.3 1025.4 1.6
27/12:30am 10.3 6.6 9.4 94 0.4 SW 19 20 10 11 1025.6 1025.7 1.6
27/12:00am 10.3 7.7 9.2 93 0.5 SSW 13 15 7 8 1025.7 1025.8 1.4
 
Date/Time
EST
Temp
°C
App
Temp
°C
Dew
Point
Rel
Hum
%
Delta-T
°C
Wind Press
QNH
hPa
Press
MSL
hPa
Rain
since 9 am
mm
Dir
 
Spd
km/h
Gust
km/h
Spd
kts
Gust
kts
26/11:30pm 10.4 8.2 9.2 92 0.6 S 11 13 6 7 1026.0 1026.1 1.4
26/11:00pm 10.7 8.9 9.3 91 0.7 NE 9 11 5 6 1026.3 1026.4 1.4
26/10:30pm 10.9 5.6 9.7 92 0.6 ENE 28 32 15 17 1026.7 1026.8 1.4
26/10:28pm 10.9 5.6 9.7 92 0.6 ENE 28 32 15 17 1026.7 1026.8 1.4
26/10:00pm 10.8 9.0 9.6 92 0.6 ESE 9 11 5 6 1026.9 1027.0 1.4
26/09:30pm 11.0 8.5 9.8 92 0.6 E 13 17 7 9 1027.2 1027.3 1.4
26/09:00pm 10.9 9.4 9.3 90 0.8 NE 7 9 4 5 1027.2 1027.3 0.6
26/08:30pm 11.9 8.9 9.3 84 1.3 ENE 15 19 8 10 1027.3 1027.4 0.0
26/08:00pm 11.6 7.2 8.8 83 1.4 ENE 22 32 12 17 1027.4 1027.5 0.0
26/07:30pm 11.8 7.7 8.8 82 1.5 ENE 20 24 11 13 1027.5 1027.6 0.0
26/07:00pm 11.7 7.0 9.1 84 1.3 ENE 24 28 13 15 1027.4 1027.5 0.0
26/06:30pm 10.7 7.7 9.1 90 0.8 SSE 15 20 8 11 1027.4 1027.5 0.0
26/06:00pm 10.6 6.6 8.9 89 0.8 SSE 20 24 11 13 1027.4 1027.5 0.0
26/05:30pm 10.7 7.7 9.1 90 0.8 SE 15 19 8 10 1027.5 1027.6 0.0
26/05:00pm 10.9 6.9 9.0 88 0.9 SE 20 24 11 13 1027.6 1027.7 0.0
26/04:30pm 11.1 8.4 9.0 87 1.0 SE 13 19 7 10 1027.7 1027.8 0.0
26/04:00pm 11.5 8.8 9.1 85 1.2 NE 13 19 7 10 1027.9 1028.0 0.0
26/03:30pm 11.9 5.4 8.2 78 1.8 ENE 32 35 17 19 1027.8 1027.9 0.0
26/03:00pm 12.3 8.8 7.2 71 2.4 SE 15 22 8 12 1028.0 1028.1 0.0
26/02:30pm 12.8 9.1 8.1 73 2.3 S 17 20 9 11 1028.2 1028.3 0.0
26/02:00pm 12.4 8.6 7.7 73 2.3 SSE 17 20 9 11 1028.5 1028.6 0.0
26/01:30pm 13.8 9.3 7.1 64 3.3 SSE 20 24 11 13 1028.7 1028.8 0.0
26/01:00pm 13.2 8.7 6.8 65 3.1 SSE 20 24 11 13 1029.1 1029.2 0.0
26/12:30pm 13.1 8.7 6.5 64 3.2 SSE 19 22 10 12 1029.4 1029.5 0.0
26/12:00pm 12.8 8.1 6.2 64 3.1 S 20 24 11 13 1029.9 1030.0 0.0
26/11:30am 13.0 8.3 5.9 62 3.3 S 20 24 11 13 1030.3 1030.4 0.0
26/11:00am 12.6 8.0 6.4 66 2.9 S 20 24 11 13 1030.5 1030.6 0.0
26/10:30am 12.4 7.8 6.5 67 2.8 S 20 24 11 13 1030.7 1030.8 0.0
26/10:00am 12.1 7.4 6.2 67 2.8 S 20 24 11 13 1030.9 1031.0 0.0
26/09:30am 11.7 6.7 6.4 70 2.5 S 22 26 12 14 1030.9 1031.0 0.0
26/09:00am 11.4 6.3 5.9 69 2.5 S 22 26 12 14 1030.8 1030.9 0.0
26/08:30am 10.9 6.3 6.3 73 2.2 S 20 24 11 13 1030.7 1030.8 0.0
26/08:00am 10.0 5.2 5.8 75 1.9 SSW 20 24 11 13 1030.7 1030.8 0.0
26/07:30am 9.0 4.4 5.6 79 1.5 SSW 19 20 10 11 1030.6 1030.7 0.0
26/07:00am 8.0 3.7 5.1 82 1.3 SSW 17 20 9 11 1030.4 1030.5 0.0
26/06:30am 8.1 3.7 4.9 80 1.4 SSW 17 20 9 11 1030.3 1030.4 0.0
26/06:00am 8.0 3.6 4.9 81 1.4 SSW 17 19 9 10 1030.1 1030.2 0.0
26/05:30am 8.0 3.6 4.9 81 1.4 SSW 17 19 9 10 1030.1 1030.2 0.0
26/05:00am 7.7 3.3 4.8 82 1.3 SSW 17 19 9 10 1030.3 1030.4 0.0
26/04:30am 8.2 3.5 5.3 82 1.3 SSW 19 22 10 12 1030.2 1030.3 0.0
26/04:00am 9.0 4.4 5.7 80 1.5 SSW 19 20 10 11 1030.2 1030.3 0.0
26/03:30am 8.9 4.3 5.8 81 1.4 SSW 19 22 10 12 1030.2 1030.3 0.0
26/03:00am 8.4 4.2 5.7 83 1.2 SSW 17 20 9 11 1030.4 1030.5 0.0
26/02:30am 8.1 3.9 5.7 85 1.1 SSW 17 19 9 10 1030.6 1030.7 0.0
26/02:00am 8.3 4.0 5.4 82 1.3 SW 17 19 9 10 1030.7 1030.8 0.0
26/01:30am 8.5 3.9 5.4 81 1.4 SW 19 20 10 11 1030.8 1030.9 0.0
26/01:00am 8.4 3.8 5.7 83 1.2 SW 19 24 10 13 1030.8 1030.9 0.0
26/12:30am 8.4 3.8 5.7 83 1.2 SW 19 22 10 12 1030.9 1031.0 0.0
26/12:00am 9.3 4.3 6.4 82 1.3 S 22 26 12 14 1030.9 1031.0 0.0
 
Date/Time
EST
Temp
°C
App
Temp
°C
Dew
Point
Rel
Hum
%
Delta-T
°C
Wind Press
QNH
hPa
Press
MSL
hPa
Rain
since 9 am
mm
Dir
 
Spd
km/h
Gust
km/h
Spd
kts
Gust
kts
25/11:30pm 9.4 4.4 6.3 81 1.4 S 22 24 12 13 1031.0 1031.1 0.0
25/11:00pm 9.9 4.8 6.2 78 1.7 S 22 26 12 14 1030.9 1031.0 0.0
25/10:30pm 10.1 6.2 5.3 72 2.2 SE 15 20 8 11 1031.0 1031.1 0.0
25/10:00pm 10.7 7.4 4.4 65 2.8 ESE 11 15 6 8 1031.1 1031.2 0.0
25/09:30pm 10.8 7.8 4.3 64 2.9 E 9 15 5 8 1031.0 1031.1 0.0
25/09:00pm 10.8 7.5 4.5 65 2.8 E 11 15 6 8 1030.9 1031.0 0.0
25/08:30pm 10.7 7.4 4.4 65 2.8 ENE 11 13 6 7 1030.7 1030.8 0.0
25/08:00pm 10.5 6.7 4.0 64 2.9 ESE 13 17 7 9 1030.6 1030.7 0.0
25/07:30pm 10.6 6.9 4.3 65 2.8 ESE 13 17 7 9 1030.4 1030.5 0.0
25/07:00pm 10.4 6.8 4.8 68 2.5 ESE 13 17 7 9 1030.2 1030.3 0.0
25/06:30pm 10.0 6.3 4.6 69 2.4 ESE 13 17 7 9 1029.9 1030.0 0.0
25/06:00pm 10.0 6.6 4.2 67 2.5 E 11 15 6 8 1029.6 1029.7 0.0
25/05:30pm 10.2 6.4 3.9 65 2.8 ESE 13 15 7 8 1029.2 1029.3 0.0
25/05:00pm 10.9 7.6 4.8 66 2.7 E 11 15 6 8 1028.7 1028.8 0.0
25/04:30pm 11.5 8.3 5.2 65 2.9 ESE 11 15 6 8 1028.3 1028.4 0.0
25/04:00pm 12.2 9.2 5.8 65 3.0 E 11 15 6 8 1028.1 1028.2 0.0
25/03:30pm 12.4 9.2 5.1 61 3.4 E 11 15 6 8 1028.1 1028.2 0.0
25/03:00pm 12.3 8.7 4.8 60 3.4 ESE 13 17 7 9 1028.0 1028.1 0.0
25/02:30pm 12.8 9.7 5.5 61 3.4 ESE 11 15 6 8 1028.0 1028.1 0.0
25/02:00pm 12.8 9.2 5.2 60 3.5 ESE 13 17 7 9 1028.0 1028.1 0.0
25/01:30pm 12.8 9.5 4.8 58 3.7 E 11 15 6 8 1028.0 1028.1 0.0
25/01:00pm 13.1 9.8 4.8 57 3.8 E 11 15 6 8 1028.2 1028.3 0.0
25/12:30pm 13.0 10.4 6.1 63 3.3 ESE 9 15 5 8 1028.4 1028.5 0.0
25/12:00pm 12.4 9.7 5.8 64 3.1 ESE 9 13 5 7 1028.5 1028.6 0.0
25/11:30am 12.2 9.6 6.0 66 2.9 ESE 9 13 5 7 1028.8 1028.9 0.0
25/11:00am 12.3 9.6 5.7 64 3.1 SE 9 15 5 8 1028.9 1029.0 0.0
25/10:30am 12.5 9.1 6.1 65 3.0 SSE 13 17 7 9 1028.9 1029.0 0.0
25/10:00am 11.5 8.8 5.4 66 2.8 SSE 9 15 5 8 1028.9 1029.0 0.0
25/09:30am 10.3 6.8 5.5 72 2.2 SSW 13 15 7 8 1028.8 1028.9 0.0
25/09:00am 9.4 6.2 5.0 74 2.0 SW 11 13 6 7 1028.6 1028.7 0.2
25/08:30am 8.0 3.9 4.4 78 1.6 SSW 15 17 8 9 1028.4 1028.5 0.2
25/08:00am 7.7 4.4 4.7 81 1.3 SSW 11 11 6 6 1028.1 1028.2 0.2
25/07:30am 6.2 2.9 2.7 78 1.4 SSW 9 11 5 6 1028.1 1028.2 0.2

Other Formats:

Comma delimited format used in spreadsheet applications
http://www.bom.gov.au/fwo/IDT60801/IDT60801.94983.axf

JavaScript Object Notation format (JSON) in row-major order
http://www.bom.gov.au/fwo/IDT60801/IDT60801.94983.json